Cape Hatteras — WRZ8934 — position and weather

sailwx.info

Track history (hours):
 
Tides and Currents Weather Stations Pressure Air Temp Water Temp Dewpoint Dewpoint Depression Visibility Wind Speed Wind Dir Waves Ship Positions

Oceanographic research ship Cape Hatteras (USA)

Detailed information on ship capabilities available from University of Delaware's Ocean Information Center.

Owner: DUKE UNIVERSITY, BEAUFORT, NC. More information available from US FCC via Universal Licensing System and Coast Guard Vessel Documentation Center.

Last reported at 2017-Jun-20 19:27 UTC. Time now 2017-Aug-17 01:39 UTC.
Position N 34°26' W 076°43'.
Warning: this ship's position is 57 days out of date.

Length 41 m; draft 3 m.

Type: Other ship. MMSI: 366929330.

Date/timePositionNaut miles runAvg speedWind from/ knotsBaromVisibWave heightAir tempDewpointWater temp
2017-Jun-20 19:27N 34°26' W 076°43'4 9.2
2017-Jun-20 19:00N 34°29' W 076°46'3 5.5
2017-Jun-20 18:24N 34°32' W 076°48'1 1.0
2017-Jun-20 17:46N 34°32' W 076°48'0 1.1
2017-Jun-20 17:28N 34°33' W 076°48'1 1.2
2017-Jun-20 16:59N 34°33' W 076°47'1 1.1
2017-Jun-20 16:30N 34°34' W 076°47'1 1.9
2017-Jun-20 15:58N 34°33' W 076°48'0 0.3
2017-Jun-20 15:10N 34°33' W 076°48'1 5.4
2017-Jun-20 14:58N 34°33' W 076°49'  
2017-Jun-14 21:29N 34°12' W 077°26'1 2.5
2017-Jun-14 21:01N 34°13' W 077°25'34 5.6
2017-Jun-14 15:01N 34°32' W 076°51'0 1.1
2017-Jun-14 14:59N 34°32' W 076°51'1010.0
2017-Jun-14 14:01N 34°37' W 076°42'4 7.0
2017-Jun-14 13:30N 34°39' W 076°38'0 0.6
2017-Jun-14 13:00N 34°39' W 076°38'0 0.5
2017-Jun-14 12:30N 34°39' W 076°38'0 0.8
2017-Jun-14 12:00N 34°39' W 076°39'0 1.0
2017-Jun-14 11:31N 34°39' W 076°39'1 1.5
2017-Jun-14 11:00N 34°40' W 076°38'0 0.6
2017-Jun-14 10:30N 34°39' W 076°38'0 0.8
2017-Jun-14 10:00N 34°39' W 076°39'1 2.1
2017-Jun-14 09:30N 34°38' W 076°38'2 3.0
2017-Jun-14 09:00N 34°37' W 076°37'2 3.1
2017-Jun-14 08:30N 34°36' W 076°36'2 3.4
2017-Jun-14 08:00N 34°34' W 076°36'2 3.5
2017-Jun-14 07:30N 34°32' W 076°35'2 3.4
2017-Jun-14 06:59N 34°31' W 076°35'17 3.5
2017-Jun-14 02:05N 34°13' W 076°33'0 4.7
2017-Jun-14 02:00N 34°14' W 076°33'1 0.7
2017-Jun-14 01:17N 34°14' W 076°33'0 0.2
2017-Jun-14 00:24N 34°13' W 076°34'6 3.3
2017-Jun-13 22:31N 34°18' W 076°39'011.1
2017-Jun-13 22:30N 34°18' W 076°39'511.1
2017-Jun-13 22:00N 34°23' W 076°43'1011.1
2017-Jun-13 21:06N 34°30' W 076°51'111.1
2017-Jun-13 21:00N 34°31' W 076°52'5 1.5
2017-Jun-13 17:19N 34°35' W 076°57'1 1.8
2017-Jun-13 17:00N 34°34' W 076°56'0 0.6
2017-Jun-13 16:31N 34°34' W 076°56'2 0.6
2017-Jun-13 13:52N 34°34' W 076°58'0 0.1
2017-Jun-13 11:38N 34°35' W 076°58'1 4.0
2017-Jun-13 11:27N 34°35' W 076°57'1 2.3
2017-Jun-13 11:00N 34°36' W 076°56'69 3.7
2017-Jun-12 16:28N 33°52' W 078°01'4 7.9
2017-Jun-12 15:56N 33°56' W 077°60'  
Track history (hours):
 
Tides and Currents Weather Stations Pressure Air Temp Water Temp Dewpoint Dewpoint Depression Visibility Wind Speed Wind Dir Waves Ship Positions

Oceanographic research ship Cape Hatteras (USA)

Detailed information on ship capabilities available from University of Delaware's Ocean Information Center.

Owner: DUKE UNIVERSITY, BEAUFORT, NC. More information available from US FCC via Universal Licensing System and Coast Guard Vessel Documentation Center.

Last reported at 2017-Jun-20 19:27 UTC. Time now 2017-Aug-17 01:39 UTC.
Position N 34°26' W 076°43'.
Warning: this ship's position is 57 days out of date.

Length 41 m; draft 3 m.

Type: Other ship. MMSI: 366929330.

Date/timePositionNaut miles runAvg speedWind from/ knotsBaromVisibWave heightAir tempDewpointWater temp
2017-Jun-20 19:27N 34°26' W 076°43'4 9.2
2017-Jun-20 19:00N 34°29' W 076°46'3 5.5
2017-Jun-20 18:24N 34°32' W 076°48'1 1.0
2017-Jun-20 17:46N 34°32' W 076°48'0 1.1
2017-Jun-20 17:28N 34°33' W 076°48'1 1.2
2017-Jun-20 16:59N 34°33' W 076°47'1 1.1
2017-Jun-20 16:30N 34°34' W 076°47'1 1.9
2017-Jun-20 15:58N 34°33' W 076°48'0 0.3
2017-Jun-20 15:10N 34°33' W 076°48'1 5.4
2017-Jun-20 14:58N 34°33' W 076°49'  
2017-Jun-14 21:29N 34°12' W 077°26'1 2.5
2017-Jun-14 21:01N 34°13' W 077°25'34 5.6
2017-Jun-14 15:01N 34°32' W 076°51'0 1.1
2017-Jun-14 14:59N 34°32' W 076°51'1010.0
2017-Jun-14 14:01N 34°37' W 076°42'4 7.0
2017-Jun-14 13:30N 34°39' W 076°38'0 0.6
2017-Jun-14 13:00N 34°39' W 076°38'0 0.5
2017-Jun-14 12:30N 34°39' W 076°38'0 0.8
2017-Jun-14 12:00N 34°39' W 076°39'0 1.0
2017-Jun-14 11:31N 34°39' W 076°39'1 1.5
2017-Jun-14 11:00N 34°40' W 076°38'0 0.6
2017-Jun-14 10:30N 34°39' W 076°38'0 0.8
2017-Jun-14 10:00N 34°39' W 076°39'1 2.1
2017-Jun-14 09:30N 34°38' W 076°38'2 3.0
2017-Jun-14 09:00N 34°37' W 076°37'2 3.1
2017-Jun-14 08:30N 34°36' W 076°36'2 3.4
2017-Jun-14 08:00N 34°34' W 076°36'2 3.5
2017-Jun-14 07:30N 34°32' W 076°35'2 3.4
2017-Jun-14 06:59N 34°31' W 076°35'17 3.5
2017-Jun-14 02:05N 34°13' W 076°33'0 4.7
2017-Jun-14 02:00N 34°14' W 076°33'1 0.7
2017-Jun-14 01:17N 34°14' W 076°33'0 0.2
2017-Jun-14 00:24N 34°13' W 076°34'6 3.3
2017-Jun-13 22:31N 34°18' W 076°39'011.1
2017-Jun-13 22:30N 34°18' W 076°39'511.1
2017-Jun-13 22:00N 34°23' W 076°43'1011.1
2017-Jun-13 21:06N 34°30' W 076°51'111.1
2017-Jun-13 21:00N 34°31' W 076°52'5 1.5
2017-Jun-13 17:19N 34°35' W 076°57'1 1.8
2017-Jun-13 17:00N 34°34' W 076°56'0 0.6
2017-Jun-13 16:31N 34°34' W 076°56'2 0.6
2017-Jun-13 13:52N 34°34' W 076°58'0 0.1
2017-Jun-13 11:38N 34°35' W 076°58'1 4.0
2017-Jun-13 11:27N 34°35' W 076°57'1 2.3
2017-Jun-13 11:00N 34°36' W 076°56'69 3.7
2017-Jun-12 16:28N 33°52' W 078°01'4 7.9
2017-Jun-12 15:56N 33°56' W 077°60'  

Dump ship's entire track history